Tiger — 9HA2271 — position and weather

sailwx.info

Track history (hours):
 
Tides and Currents Weather Stations Pressure Air Temp Water Temp Dewpoint Dewpoint Depression Visibility Wind Speed Wind Dir Waves Ship Positions

Tiger

Last reported at 2014-Jul-18 23:12 UTC. Time now 2014-Jul-22 09:16 UTC.
Position S 38°37' E 140°47'.

Length 232 m; draft 8.7 m.

Type: Cargo ship. MMSI: 248223000.

Date/timePositionNaut miles runAvg speedWind from/ knotsBaromVisibWave heightAir tempDewpointWater temp
2014-Jul-18 23:12S 38°37' E 140°47'1115.7
2014-Jul-18 22:29S 38°39' E 141°01'3415.9
2014-Jul-18 20:22S 38°45' E 141°44'1416.3
2014-Jul-18 19:31S 38°47' E 142°02'2316.6
2014-Jul-18 18:09S 38°51' E 142°30'146 5.1
2014-Jul-17 13:33S 38°58' E 145°38'1616.1
2014-Jul-17 12:33S 39°06' E 145°56'1615.8
2014-Jul-17 11:34S 39°12' E 146°15'1616.1
2014-Jul-17 10:33S 39°08' E 146°35'1616.4
2014-Jul-17 09:34S 39°03' E 146°55'1615.5
2014-Jul-17 08:33S 38°58' E 147°14'15115.1
2014-Jul-16 22:33S 37°47' E 150°04'1816.9
2014-Jul-16 21:28S 37°29' E 150°10'1617.0
2014-Jul-16 20:31S 37°14' E 150°16'285 8.4
2014-Jul-15 10:31S 32°54' E 152°39'1717.3
2014-Jul-15 09:32S 32°40' E 152°51'27919.9
2014-Jul-14 19:30S 28°07' E 153°55'2319.0
2014-Jul-14 18:18S 27°44' E 153°52'1519.3
2014-Jul-14 17:32S 27°30' E 153°50'1919.1
2014-Jul-14 16:34S 27°12' E 153°42'2518.8
2014-Jul-14 15:14S 26°50' E 153°29'1217.8
2014-Jul-14 14:34S 26°45' E 153°18'9 9.3
2014-Jul-14 13:33S 26°50' E 153°09'1717.3
2014-Jul-14 12:33S 27°05' E 153°19'1313.4
2014-Jul-14 11:34S 27°18' E 153°13'6 6.0
2014-Jul-14 10:33S 27°23' E 153°10'0 0.0
2014-Jul-14 09:33S 27°23' E 153°10'0 0.0
2014-Jul-14 08:33S 27°23' E 153°10'0 0.0
2014-Jul-14 07:33S 27°23' E 153°10'0 0.0
2014-Jul-14 06:33S 27°23' E 153°10'0 0.0
2014-Jul-14 05:33S 27°23' E 153°10'0 0.0
2014-Jul-14 04:33S 27°23' E 153°10'0 0.0
2014-Jul-14 03:33S 27°23' E 153°10'0 0.0
2014-Jul-14 02:33S 27°23' E 153°10'0 0.0
2014-Jul-14 01:33S 27°23' E 153°10'0 0.0
2014-Jul-14 00:33S 27°23' E 153°10'0 0.0
2014-Jul-13 23:33S 27°23' E 153°10'0 0.0
2014-Jul-13 22:33S 27°23' E 153°10'0 0.0
2014-Jul-13 21:33S 27°23' E 153°10'0 0.0
2014-Jul-13 20:33S 27°23' E 153°10'5 5.2
2014-Jul-13 19:33S 27°18' E 153°13'8 8.0
2014-Jul-13 18:33S 27°14' E 153°20'1515.3
2014-Jul-13 17:34S 26°59' E 153°14'1211.9
2014-Jul-13 16:33S 26°47' E 153°12'7 6.8
2014-Jul-13 15:34S 26°41' E 153°15'1313.3
2014-Jul-13 14:33S 26°44' E 153°29'1514.6
2014-Jul-13 13:33S 26°51' E 153°44'  
2014-Jul-10 13:30S 36°10' E 174°56'1111.4
2014-Jul-10 12:34S 36°21' E 174°58'10 9.9
2014-Jul-10 11:34S 36°31' E 174°59'10 9.5
2014-Jul-10 10:34S 36°39' E 174°54'1010.2
2014-Jul-10 09:34S 36°49' E 174°50'3 3.0
2014-Jul-10 08:30S 36°50' E 174°46'0 0.0
2014-Jul-10 07:30S 36°50' E 174°46'0 0.0
2014-Jul-10 06:30S 36°50' E 174°46'0 0.0
2014-Jul-10 05:30S 36°50' E 174°46'0 0.0
2014-Jul-10 04:24S 36°50' E 174°46'0 0.0
2014-Jul-10 03:30S 36°50' E 174°46'0 0.0
2014-Jul-10 02:30S 36°50' E 174°46'0 0.0
2014-Jul-10 01:30S 36°50' E 174°46'0 0.0
2014-Jul-10 00:30S 36°50' E 174°46'0 0.0
2014-Jul-09 23:24S 36°50' E 174°46'0 0.0
2014-Jul-09 22:30S 36°50' E 174°46'0 0.2
2014-Jul-09 21:33S 36°50' E 174°47'3 2.5
2014-Jul-09 20:33S 36°50' E 174°50'1010.2
2014-Jul-09 19:33S 36°40' E 174°54'1010.0
2014-Jul-09 18:33S 36°37' E 175°06'3 3.2
2014-Jul-09 17:33S 36°40' E 175°07'3 2.6
2014-Jul-09 16:33S 36°37' E 175°06'3 2.6
2014-Jul-09 15:33S 36°34' E 175°06'3 3.4
2014-Jul-09 14:33S 36°31' E 175°07'1 1.2
2014-Jul-09 13:33S 36°31' E 175°08'3 2.8
2014-Jul-09 12:33S 36°33' E 175°10'5 4.5
2014-Jul-09 11:33S 36°38' E 175°11'1 0.7
2014-Jul-09 10:33S 36°37' E 175°11'2 2.4
2014-Jul-09 09:33S 36°35' E 175°11'2 1.7
2014-Jul-09 08:33S 36°33' E 175°11'6 5.4
2014-Jul-09 07:30S 36°27' E 175°10'3 3.2
2014-Jul-09 06:33S 36°30' E 175°11'7 6.8
2014-Jul-09 05:33S 36°36' E 175°07'1 1.4
2014-Jul-09 04:33S 36°36' E 175°05'3 3.3
2014-Jul-09 03:33S 36°32' E 175°05'5 4.8
2014-Jul-09 02:33S 36°28' E 175°03'2 1.9
2014-Jul-09 01:33S 36°29' E 175°05'3 3.4
2014-Jul-09 00:33S 36°32' E 175°03'2 2.1
2014-Jul-08 23:33S 36°33' E 175°01'  
Track history (hours):
 
Tides and Currents Weather Stations Pressure Air Temp Water Temp Dewpoint Dewpoint Depression Visibility Wind Speed Wind Dir Waves Ship Positions

Tiger

Last reported at 2014-Jul-18 23:12 UTC. Time now 2014-Jul-22 09:16 UTC.
Position S 38°37' E 140°47'.

Length 232 m; draft 8.7 m.

Type: Cargo ship. MMSI: 248223000.

Date/timePositionNaut miles runAvg speedWind from/ knotsBaromVisibWave heightAir tempDewpointWater temp
2014-Jul-18 23:12S 38°37' E 140°47'1115.7
2014-Jul-18 22:29S 38°39' E 141°01'3415.9
2014-Jul-18 20:22S 38°45' E 141°44'1416.3
2014-Jul-18 19:31S 38°47' E 142°02'2316.6
2014-Jul-18 18:09S 38°51' E 142°30'146 5.1
2014-Jul-17 13:33S 38°58' E 145°38'1616.1
2014-Jul-17 12:33S 39°06' E 145°56'1615.8
2014-Jul-17 11:34S 39°12' E 146°15'1616.1
2014-Jul-17 10:33S 39°08' E 146°35'1616.4
2014-Jul-17 09:34S 39°03' E 146°55'1615.5
2014-Jul-17 08:33S 38°58' E 147°14'15115.1
2014-Jul-16 22:33S 37°47' E 150°04'1816.9
2014-Jul-16 21:28S 37°29' E 150°10'1617.0
2014-Jul-16 20:31S 37°14' E 150°16'285 8.4
2014-Jul-15 10:31S 32°54' E 152°39'1717.3
2014-Jul-15 09:32S 32°40' E 152°51'27919.9
2014-Jul-14 19:30S 28°07' E 153°55'2319.0
2014-Jul-14 18:18S 27°44' E 153°52'1519.3
2014-Jul-14 17:32S 27°30' E 153°50'1919.1
2014-Jul-14 16:34S 27°12' E 153°42'2518.8
2014-Jul-14 15:14S 26°50' E 153°29'1217.8
2014-Jul-14 14:34S 26°45' E 153°18'9 9.3
2014-Jul-14 13:33S 26°50' E 153°09'1717.3
2014-Jul-14 12:33S 27°05' E 153°19'1313.4
2014-Jul-14 11:34S 27°18' E 153°13'6 6.0
2014-Jul-14 10:33S 27°23' E 153°10'0 0.0
2014-Jul-14 09:33S 27°23' E 153°10'0 0.0
2014-Jul-14 08:33S 27°23' E 153°10'0 0.0
2014-Jul-14 07:33S 27°23' E 153°10'0 0.0
2014-Jul-14 06:33S 27°23' E 153°10'0 0.0
2014-Jul-14 05:33S 27°23' E 153°10'0 0.0
2014-Jul-14 04:33S 27°23' E 153°10'0 0.0
2014-Jul-14 03:33S 27°23' E 153°10'0 0.0
2014-Jul-14 02:33S 27°23' E 153°10'0 0.0
2014-Jul-14 01:33S 27°23' E 153°10'0 0.0
2014-Jul-14 00:33S 27°23' E 153°10'0 0.0
2014-Jul-13 23:33S 27°23' E 153°10'0 0.0
2014-Jul-13 22:33S 27°23' E 153°10'0 0.0
2014-Jul-13 21:33S 27°23' E 153°10'0 0.0
2014-Jul-13 20:33S 27°23' E 153°10'5 5.2
2014-Jul-13 19:33S 27°18' E 153°13'8 8.0
2014-Jul-13 18:33S 27°14' E 153°20'1515.3
2014-Jul-13 17:34S 26°59' E 153°14'1211.9
2014-Jul-13 16:33S 26°47' E 153°12'7 6.8
2014-Jul-13 15:34S 26°41' E 153°15'1313.3
2014-Jul-13 14:33S 26°44' E 153°29'1514.6
2014-Jul-13 13:33S 26°51' E 153°44'  
2014-Jul-10 13:30S 36°10' E 174°56'1111.4
2014-Jul-10 12:34S 36°21' E 174°58'10 9.9
2014-Jul-10 11:34S 36°31' E 174°59'10 9.5
2014-Jul-10 10:34S 36°39' E 174°54'1010.2
2014-Jul-10 09:34S 36°49' E 174°50'3 3.0
2014-Jul-10 08:30S 36°50' E 174°46'0 0.0
2014-Jul-10 07:30S 36°50' E 174°46'0 0.0
2014-Jul-10 06:30S 36°50' E 174°46'0 0.0
2014-Jul-10 05:30S 36°50' E 174°46'0 0.0
2014-Jul-10 04:24S 36°50' E 174°46'0 0.0
2014-Jul-10 03:30S 36°50' E 174°46'0 0.0
2014-Jul-10 02:30S 36°50' E 174°46'0 0.0
2014-Jul-10 01:30S 36°50' E 174°46'0 0.0
2014-Jul-10 00:30S 36°50' E 174°46'0 0.0
2014-Jul-09 23:24S 36°50' E 174°46'0 0.0
2014-Jul-09 22:30S 36°50' E 174°46'0 0.2
2014-Jul-09 21:33S 36°50' E 174°47'3 2.5
2014-Jul-09 20:33S 36°50' E 174°50'1010.2
2014-Jul-09 19:33S 36°40' E 174°54'1010.0
2014-Jul-09 18:33S 36°37' E 175°06'3 3.2
2014-Jul-09 17:33S 36°40' E 175°07'3 2.6
2014-Jul-09 16:33S 36°37' E 175°06'3 2.6
2014-Jul-09 15:33S 36°34' E 175°06'3 3.4
2014-Jul-09 14:33S 36°31' E 175°07'1 1.2
2014-Jul-09 13:33S 36°31' E 175°08'3 2.8
2014-Jul-09 12:33S 36°33' E 175°10'5 4.5
2014-Jul-09 11:33S 36°38' E 175°11'1 0.7
2014-Jul-09 10:33S 36°37' E 175°11'2 2.4
2014-Jul-09 09:33S 36°35' E 175°11'2 1.7
2014-Jul-09 08:33S 36°33' E 175°11'6 5.4
2014-Jul-09 07:30S 36°27' E 175°10'3 3.2
2014-Jul-09 06:33S 36°30' E 175°11'7 6.8
2014-Jul-09 05:33S 36°36' E 175°07'1 1.4
2014-Jul-09 04:33S 36°36' E 175°05'3 3.3
2014-Jul-09 03:33S 36°32' E 175°05'5 4.8
2014-Jul-09 02:33S 36°28' E 175°03'2 1.9
2014-Jul-09 01:33S 36°29' E 175°05'3 3.4
2014-Jul-09 00:33S 36°32' E 175°03'2 2.1
2014-Jul-08 23:33S 36°33' E 175°01'  

Dump ship's entire track history